Weather at Aérodrome de Marennes - Le Bournet

Public forecast

Using degrees Celsius for public forecast. Weather courtesy of forecast.io.

Closest aviation weather report (METAR) to Aérodrome de Marennes - Le Bournet

Report is more than 6 hours old.

Closest report is La Rochelle-Île de Ré Airport, 21.8 nm (40.4 km) NNW.

2022/11/14 15:30 (retrieved 2 years ago)

LFBH 141530Z AUTO 27009KT 9999 FEW031 14/10 Q1013 NOSIG

Closest aviation forecast (TAF) to Aérodrome de Marennes - Le Bournet

Forecast is more than 12 hours old.

Closest forecast is La Rochelle-Île de Ré Airport, 21.8 nm (40.4 km) NNW.

2023/02/22 18:39 Ammendment (retrieved 1 year ago)

TAF AMD TAF AMD LFBH 221737Z 2218/2318 30010KT 9999 SCT010 BKN030 TEMPO 2218/2221 3000 RA BKN004 FM222100 36010KT 9999 SCT015 BKN025 PROB40 TEMPO 2221/2224 4500 -SHRA BKN012 BKN020TCU PROB40 TEMPO 2304/2312 4500 -RA TEMPO 2312/2318 4000 -RA BKN012 BKN020